Andover, CT (06232)

7:09 PM EST on December 18, 2014 (GMT -0500)
Baker Brook/Daria Dr. | Change Station
CLOSE
Current Station
Personal Weather Station
Location: Bolton, CT
Elevation: 568 ft
Nearby Weather Stations

Elev 568 ft 41.73 °N, 72.42 °W | Updated 15 minutes ago

Overcast
Overcast
34.0 °F
Feels Like 31 °F
N
3.2
Wind Variable Wind from WSW

Today
High -- | Low -- °F
--% Chance of Precip.
Yesterday
High -- | Low -- °F
Precip. -- in
7:11 AM 4:20 PM
Waning Crescent, 11% visible
Pressure 29.91 in
Visibility 10.0 miles
Clouds Mostly Cloudy 3300 ft
Windchill 31 °F
Dew Point 28 °F
Humidity 78%
Rainfall 0.00 in
Snow Depth Not available.
UV 0 out of 12
Pollen .10 out of 12
Air Quality Not available.
Flu Activity Not available.
METAR KIJD 182352Z AUTO 30006KT 10SM BKN033 03/M04 A2990 RMK AO2 SLP126 T00281039 10050 20028 51010

More Conditions Fewer Conditions

Pressure 29.91 in
Visibility 10.0 miles
Clouds Mostly Cloudy 3300 ft
Windchill 31 °F
Dew Point 28 °F
Humidity 78%
Rainfall 0.00 in
Snow Depth Not available.
UV 0 out of 12
Pollen .10 out of 12
Air Quality Not available.
Flu Activity Not available.
METAR KIJD 182352Z AUTO 30006KT 10SM BKN033 03/M04 A2990 RMK AO2 SLP126 T00281039 10050 20028 51010

More Conditions Fewer Conditions

10-Day Weather Forecast

Almanac

Astronomy

Dec. 18, 2014 Rise Set
Actual Time
Civil Twilight
Nautical Twilight
Astronomical Twilight
Moon
Length of Visible Light
Length of Day
Tomorrow will be .
, % of the Moon is Illuminated

Today's Extremes

State Highs State Lows

Community

WunderPhotos

Upload Photos

1,779,012 photos uploaded!

WunderBlogs® & News

Nearby

Air Quality

  Air Quality AQ Index Pollutant
Not available.

Snow Depth

Station Depth Elevation

Earthquake Activity

City Distance Mag. Time & Date
Minimum magnitude displayed is 2.5.

Coastal Water Temperatures

Place Temperature

Nearby Weather Stations